createdAt,value
2023-03-16T00:00:41.876Z,12.77
2023-03-16T00:03:09.444Z,13.07
2023-03-16T00:05:36.263Z,11.40
2023-03-16T00:08:03.357Z,12.23
2023-03-16T00:10:30.410Z,12.13
2023-03-16T00:12:57.741Z,11.82
2023-03-16T00:15:24.720Z,13.70
2023-03-16T00:17:51.529Z,12.40
2023-03-16T00:20:18.992Z,12.20
2023-03-16T00:22:46.029Z,13.15
2023-03-16T00:25:14.652Z,12.68
2023-03-16T00:27:41.575Z,13.27
2023-03-16T00:30:09.476Z,11.15
2023-03-16T00:32:37.673Z,12.13
2023-03-16T00:35:09.145Z,14.10
2023-03-16T00:37:36.424Z,12.82
2023-03-16T00:40:03.407Z,13.50
2023-03-16T00:42:31.053Z,13.38
2023-03-16T00:44:58.839Z,11.80
2023-03-16T00:47:27.599Z,13.63
2023-03-16T00:49:54.639Z,11.75
2023-03-16T00:52:22.400Z,11.85
2023-03-16T00:54:49.775Z,14.63
2023-03-16T00:57:18.131Z,13.00
2023-03-16T00:59:46.344Z,13.20
2023-03-16T01:02:14.487Z,11.65
2023-03-16T01:04:42.435Z,12.30
2023-03-16T01:07:11.545Z,13.15
2023-03-16T01:09:39.888Z,14.33
2023-03-16T01:12:12.934Z,12.30
2023-03-16T01:14:40.209Z,12.93
2023-03-16T01:17:08.628Z,13.65
2023-03-16T01:19:37.434Z,11.50
2023-03-16T01:22:06.398Z,11.80
2023-03-16T01:24:34.021Z,14.55
2023-03-16T01:27:01.441Z,14.40
2023-03-16T01:29:28.280Z,12.23
2023-03-16T01:31:55.101Z,11.90
2023-03-16T01:34:23.190Z,11.07
2023-03-16T01:36:51.016Z,12.40
2023-03-16T01:39:17.947Z,11.40
2023-03-16T01:41:45.916Z,10.88
2023-03-16T01:44:19.325Z,11.07
2023-03-16T01:46:46.203Z,12.30
2023-03-16T01:49:24.062Z,13.18
2023-03-16T01:52:11.124Z,12.63
2023-03-16T01:54:51.723Z,14.50
2023-03-16T01:57:19.931Z,15.93
2023-03-16T02:00:09.888Z,15.20
2023-03-16T02:02:41.149Z,15.88
2023-03-16T02:05:20.949Z,13.73
2023-03-16T02:07:49.747Z,15.70
2023-03-16T02:10:20.093Z,13.85
2023-03-16T02:12:47.501Z,13.77
2023-03-16T02:15:14.886Z,13.18
2023-03-16T02:17:43.908Z,15.70
2023-03-16T02:20:47.639Z,14.05
2023-03-16T02:23:18.387Z,13.20
2023-03-16T02:25:59.637Z,16.13
2023-03-16T02:28:52.361Z,14.18
2023-03-16T02:31:20.322Z,13.10
2023-03-16T02:33:49.550Z,12.38
2023-03-16T02:36:18.905Z,13.25
2023-03-16T02:38:45.853Z,14.10
2023-03-16T02:41:18.505Z,12.73
2023-03-16T02:43:55.812Z,11.88
2023-03-16T02:46:26.891Z,12.90
2023-03-16T02:49:16.020Z,12.52
2023-03-16T02:51:45.501Z,12.13
2023-03-16T02:54:12.465Z,11.63
2023-03-16T02:56:39.934Z,12.18
2023-03-16T02:59:06.972Z,12.88
2023-03-16T03:01:33.966Z,11.77
2023-03-16T03:04:01.829Z,13.23
2023-03-16T03:06:28.950Z,11.88
2023-03-16T03:08:56.360Z,12.00
2023-03-16T03:11:23.189Z,12.40
2023-03-16T03:13:50.562Z,11.80
2023-03-16T03:16:17.428Z,11.93
2023-03-16T03:18:44.507Z,13.45
2023-03-16T03:21:11.288Z,12.55
2023-03-16T03:23:38.194Z,12.10
2023-03-16T03:26:05.582Z,12.63
2023-03-16T03:28:32.472Z,13.97
2023-03-16T03:30:59.252Z,13.60
2023-03-16T03:33:26.101Z,13.13
2023-03-16T03:36:02.079Z,13.02
2023-03-16T03:38:28.942Z,13.30
2023-03-16T03:40:55.785Z,13.13
2023-03-16T03:43:22.664Z,13.23
2023-03-16T03:45:49.637Z,13.23
2023-03-16T03:48:16.537Z,12.35
2023-03-16T03:50:43.379Z,12.70
2023-03-16T03:53:10.372Z,13.07
2023-03-16T03:55:37.266Z,12.18
2023-03-16T03:58:04.129Z,11.85
2023-03-16T04:00:31.060Z,11.70
2023-03-16T04:02:57.970Z,11.57
2023-03-16T04:05:25.756Z,12.40
2023-03-16T04:07:52.631Z,11.80
2023-03-16T04:10:19.555Z,12.88
2023-03-16T04:12:46.425Z,12.55
2023-03-16T04:15:13.260Z,12.07
2023-03-16T04:17:40.067Z,12.60
2023-03-16T04:20:07.572Z,10.88
2023-03-16T04:22:34.435Z,11.68
2023-03-16T04:25:01.260Z,11.68
2023-03-16T04:27:28.161Z,12.25
2023-03-16T04:29:55.076Z,15.77
2023-03-16T04:32:21.984Z,12.85
2023-03-16T04:34:48.804Z,10.98
2023-03-16T04:37:15.648Z,12.10
2023-03-16T04:39:42.582Z,11.98
2023-03-16T04:42:09.497Z,12.90
2023-03-16T04:44:36.476Z,13.07
2023-03-16T04:47:03.216Z,12.18
2023-03-16T04:49:30.064Z,11.32
2023-03-16T04:51:57.074Z,11.98
2023-03-16T04:54:23.956Z,12.10
2023-03-16T04:56:50.722Z,11.35
2023-03-16T04:59:17.526Z,11.90
2023-03-16T05:01:44.410Z,11.55
2023-03-16T05:04:15.028Z,11.75
2023-03-16T05:06:46.028Z,11.40
2023-03-16T05:09:12.839Z,12.05
2023-03-16T05:11:40.060Z,11.43
2023-03-16T05:14:06.982Z,11.05
2023-03-16T05:16:33.808Z,11.65
2023-03-16T05:19:01.741Z,11.10
2023-03-16T05:21:28.597Z,11.02
2023-03-16T05:23:55.486Z,10.82
2023-03-16T05:26:22.355Z,11.50
2023-03-16T05:28:49.241Z,11.02
2023-03-16T05:31:16.275Z,12.00
2023-03-16T05:33:43.538Z,11.68
2023-03-16T05:36:11.417Z,11.77
2023-03-16T05:38:38.340Z,11.32
2023-03-16T05:41:06.216Z,11.80
2023-03-16T05:43:33.335Z,11.97
2023-03-16T05:46:00.175Z,12.05
2023-03-16T05:48:27.023Z,11.88
2023-03-16T05:50:54.471Z,10.63
2023-03-16T05:53:21.807Z,12.05
2023-03-16T05:55:52.890Z,11.17
2023-03-16T05:58:19.838Z,11.38
2023-03-16T06:00:49.643Z,10.77
2023-03-16T06:03:16.972Z,10.38
2023-03-16T06:05:44.022Z,11.15
2023-03-16T06:08:10.823Z,10.30
2023-03-16T06:10:37.720Z,11.20
2023-03-16T06:13:04.725Z,11.05
2023-03-16T06:15:34.616Z,11.35
2023-03-16T06:18:04.588Z,11.02
2023-03-16T06:20:31.432Z,11.07
2023-03-16T06:22:58.244Z,11.32
2023-03-16T06:25:25.080Z,11.95
2023-03-16T06:27:51.987Z,10.20
2023-03-16T06:30:18.886Z,11.80
2023-03-16T06:32:45.866Z,11.70
2023-03-16T06:35:13.547Z,11.70
2023-03-16T06:37:40.400Z,11.27
2023-03-16T06:40:08.002Z,11.10
2023-03-16T06:42:34.826Z,12.25
2023-03-16T06:45:01.716Z,11.97
2023-03-16T06:47:28.694Z,12.32
2023-03-16T06:49:55.509Z,12.10
2023-03-16T06:52:23.110Z,11.70
2023-03-16T06:54:50.218Z,12.07
2023-03-16T06:57:17.064Z,12.10
2023-03-16T06:59:43.910Z,12.07
2023-03-16T07:02:13.075Z,11.88
2023-03-16T07:04:40.423Z,10.70
2023-03-16T07:07:07.269Z,11.82
2023-03-16T07:09:36.741Z,11.67
2023-03-16T07:12:05.700Z,11.93
2023-03-16T07:14:32.524Z,12.00
2023-03-16T07:16:59.640Z,10.82
2023-03-16T07:19:26.492Z,10.82
2023-03-16T07:21:53.582Z,11.13
2023-03-16T07:24:21.230Z,12.45
2023-03-16T07:26:47.967Z,12.55
2023-03-16T07:29:14.808Z,11.75
2023-03-16T07:31:41.712Z,13.10
2023-03-16T07:34:08.720Z,13.17
2023-03-16T07:36:35.555Z,12.30
2023-03-16T07:39:02.464Z,11.32
2023-03-16T07:41:31.629Z,11.68
2023-03-16T07:43:59.340Z,12.75
2023-03-16T07:46:26.542Z,13.20
2023-03-16T07:48:53.403Z,12.35
2023-03-16T07:51:20.219Z,11.75
2023-03-16T07:53:47.369Z,11.52
2023-03-16T07:56:14.241Z,12.35
2023-03-16T07:58:41.531Z,11.23
2023-03-16T08:01:08.561Z,12.07
2023-03-16T08:03:35.530Z,11.55
2023-03-16T08:06:02.562Z,11.05
2023-03-16T08:08:29.406Z,12.07
2023-03-16T08:10:56.744Z,11.40
2023-03-16T08:13:24.016Z,11.90
2023-03-16T08:15:52.274Z,11.88
2023-03-16T08:18:19.156Z,11.70
2023-03-16T08:20:46.035Z,11.68
2023-03-16T08:23:12.926Z,12.50
2023-03-16T08:25:39.751Z,12.52
2023-03-16T08:28:06.860Z,12.27
2023-03-16T08:30:33.820Z,13.57
2023-03-16T08:33:00.924Z,13.52
2023-03-16T08:35:27.845Z,11.57
2023-03-16T08:37:56.023Z,14.23
2023-03-16T08:40:23.140Z,15.13
2023-03-16T08:42:50.014Z,14.60
2023-03-16T08:45:17.283Z,14.93
2023-03-16T08:47:44.266Z,16.13
2023-03-16T08:50:12.858Z,15.05
2023-03-16T08:52:39.785Z,15.40
2023-03-16T08:55:07.950Z,13.88
2023-03-16T08:57:34.766Z,14.73
2023-03-16T09:00:02.133Z,14.33
2023-03-16T09:02:29.271Z,15.02
2023-03-16T09:04:56.074Z,14.05
2023-03-16T09:07:23.187Z,14.40
2023-03-16T09:09:50.206Z,13.35
2023-03-16T09:12:17.016Z,12.37
2023-03-16T09:14:43.889Z,12.48
2023-03-16T09:17:10.928Z,11.70
2023-03-16T09:19:55.711Z,11.85
2023-03-16T09:22:24.539Z,11.00
2023-03-16T09:24:51.494Z,10.03
2023-03-16T09:27:19.253Z,10.75
2023-03-16T09:29:46.798Z,10.80
2023-03-16T09:32:13.646Z,11.13
2023-03-16T09:34:40.707Z,10.18
2023-03-16T09:37:07.716Z,9.60
2023-03-16T09:39:34.573Z,9.27
2023-03-16T09:42:34.018Z,9.07
2023-03-16T09:45:12.920Z,9.40
2023-03-16T09:47:41.932Z,8.10
2023-03-16T09:50:16.713Z,7.37
2023-03-16T09:52:55.330Z,8.05
2023-03-16T09:55:25.204Z,8.00
2023-03-16T09:57:53.964Z,8.73
2023-03-16T10:00:22.849Z,9.35
2023-03-16T10:03:17.999Z,9.13
2023-03-16T10:05:47.935Z,9.60
2023-03-16T10:08:24.358Z,11.55
2023-03-16T10:11:28.589Z,12.20
2023-03-16T10:13:59.715Z,12.32
2023-03-16T10:16:46.975Z,12.60
2023-03-16T10:19:45.821Z,12.95
2023-03-16T10:22:22.545Z,13.27
2023-03-16T10:25:11.107Z,12.82
2023-03-16T10:27:40.611Z,13.30
2023-03-16T10:30:14.270Z,13.33
2023-03-16T10:32:41.071Z,10.05
2023-03-16T10:35:26.210Z,6.30
2023-03-16T10:37:53.144Z,5.63
2023-03-16T10:40:19.982Z,5.18
2023-03-16T10:42:47.700Z,5.77
2023-03-16T10:45:32.188Z,6.80
2023-03-16T10:48:18.194Z,4.82
2023-03-16T10:50:50.439Z,5.57
2023-03-16T10:53:23.237Z,5.60
2023-03-16T10:55:50.370Z,5.50
2023-03-16T10:58:25.756Z,6.22
2023-03-16T11:00:52.607Z,6.57
2023-03-16T11:03:30.287Z,6.80
2023-03-16T11:05:59.460Z,6.45
2023-03-16T11:08:28.139Z,6.60
2023-03-16T11:11:01.032Z,7.57
2023-03-16T11:13:36.590Z,8.88
2023-03-16T11:16:06.334Z,9.05
2023-03-16T11:18:41.625Z,8.73
2023-03-16T11:21:12.524Z,8.47
2023-03-16T11:23:43.236Z,8.07
2023-03-16T11:26:21.404Z,8.18
2023-03-16T11:28:56.991Z,8.10
2023-03-16T11:31:43.984Z,8.60
2023-03-16T11:34:16.550Z,7.83
2023-03-16T11:36:50.400Z,9.23
2023-03-16T11:39:44.947Z,8.45
2023-03-16T11:42:42.208Z,7.13
2023-03-16T11:45:20.673Z,6.72
2023-03-16T11:48:13.774Z,7.60
2023-03-16T11:51:05.207Z,7.55
2023-03-16T11:53:47.191Z,7.55
2023-03-16T11:56:34.371Z,7.50
2023-03-16T11:59:26.274Z,7.82
2023-03-16T12:02:05.229Z,7.50
2023-03-16T12:04:41.059Z,7.03
2023-03-16T12:07:19.774Z,7.00
2023-03-16T12:10:17.684Z,7.10
2023-03-16T12:13:02.617Z,7.63
2023-03-16T12:15:33.068Z,6.87
2023-03-16T12:18:14.163Z,6.97
2023-03-16T12:20:51.226Z,6.55
2023-03-16T12:23:29.334Z,6.65
2023-03-16T12:25:58.722Z,5.75
2023-03-16T12:28:28.493Z,5.50
2023-03-16T12:31:20.169Z,4.97
2023-03-16T12:33:56.979Z,4.63
2023-03-16T12:36:55.163Z,4.78
2023-03-16T12:39:48.884Z,4.38
2023-03-16T12:42:41.971Z,3.30
2023-03-16T12:45:16.142Z,3.50
2023-03-16T12:47:49.308Z,3.58
2023-03-16T12:50:18.040Z,4.03
2023-03-16T12:52:47.879Z,3.10
2023-03-16T12:55:17.418Z,3.30
2023-03-16T12:57:46.069Z,3.50
2023-03-16T13:00:14.779Z,2.90
2023-03-16T13:02:55.984Z,3.13
2023-03-16T13:05:35.182Z,2.70
2023-03-16T13:08:10.409Z,2.47
2023-03-16T13:10:38.558Z,3.13
2023-03-16T13:13:16.497Z,3.25
2023-03-16T13:15:44.807Z,3.20
2023-03-16T13:18:14.712Z,3.65
2023-03-16T13:21:01.217Z,3.57
2023-03-16T13:23:56.638Z,3.50
2023-03-16T13:26:45.622Z,3.97
2023-03-16T13:29:28.627Z,4.20
2023-03-16T13:32:02.187Z,4.70
2023-03-16T13:34:46.884Z,4.20
2023-03-16T13:37:15.459Z,3.95
2023-03-16T13:39:42.607Z,3.92
2023-03-16T13:42:19.381Z,2.42
2023-03-16T13:44:46.608Z,2.45
2023-03-16T13:47:20.069Z,2.50
2023-03-16T13:49:51.617Z,2.92
2023-03-16T13:52:31.834Z,2.70
2023-03-16T13:55:00.425Z,2.60
2023-03-16T13:57:30.569Z,2.72
2023-03-16T14:00:25.502Z,1.90
2023-03-16T14:03:00.233Z,1.70
2023-03-16T14:05:30.051Z,2.20
2023-03-16T14:07:57.432Z,1.90
2023-03-16T14:10:29.721Z,2.10
2023-03-16T14:12:58.684Z,2.13
2023-03-16T14:15:28.244Z,2.40
2023-03-16T14:18:13.894Z,2.05
2023-03-16T14:20:41.811Z,1.83
2023-03-16T14:23:25.935Z,1.75
2023-03-16T14:25:53.282Z,2.17
2023-03-16T14:28:27.090Z,2.40
2023-03-16T14:31:01.702Z,2.15
2023-03-16T14:33:31.232Z,2.13
2023-03-16T14:36:06.958Z,1.85
2023-03-16T14:38:36.340Z,2.27
2023-03-16T14:41:13.535Z,1.90
2023-03-16T14:43:47.344Z,2.10
2023-03-16T14:46:17.801Z,2.33
2023-03-16T14:48:44.874Z,2.33
2023-03-16T14:51:15.208Z,2.07
2023-03-16T14:53:42.177Z,2.20
2023-03-16T14:56:12.954Z,2.35
2023-03-16T14:58:40.722Z,2.63
2023-03-16T15:01:14.410Z,2.30
2023-03-16T15:03:41.721Z,2.03
2023-03-16T15:06:08.518Z,1.90
2023-03-16T15:08:36.687Z,2.20
2023-03-16T15:11:06.710Z,3.72
2023-03-16T15:13:33.975Z,2.67
2023-03-16T15:16:02.134Z,2.20
2023-03-16T15:18:29.168Z,2.80
2023-03-16T15:20:56.096Z,2.55
2023-03-16T15:23:22.954Z,2.15
2023-03-16T15:25:50.177Z,2.40
2023-03-16T15:28:18.327Z,2.80
2023-03-16T15:30:51.271Z,2.65
2023-03-16T15:33:18.524Z,3.50
2023-03-16T15:35:48.169Z,3.63
2023-03-16T15:38:24.182Z,3.35
2023-03-16T15:40:52.056Z,3.70
2023-03-16T15:43:27.431Z,3.97
2023-03-16T15:45:56.444Z,3.90
2023-03-16T15:48:23.472Z,3.97
2023-03-16T15:51:16.450Z,4.07
2023-03-16T15:53:50.177Z,3.77
2023-03-16T15:56:24.196Z,4.18
2023-03-16T16:10:16.944Z,4.80
2023-03-16T16:12:45.090Z,3.70
2023-03-16T16:15:22.396Z,3.72
2023-03-16T16:18:09.955Z,4.03
2023-03-16T16:20:37.284Z,4.50
2023-03-16T16:23:04.412Z,3.30
2023-03-16T16:25:37.521Z,2.85
2023-03-16T16:28:21.039Z,2.80
2023-03-16T16:30:48.772Z,3.50
2023-03-16T16:33:22.805Z,2.80
2023-03-16T16:35:49.667Z,2.42
2023-03-16T16:38:16.519Z,2.30
2023-03-16T16:40:43.758Z,2.70
2023-03-16T16:43:37.662Z,2.63
2023-03-16T16:46:16.237Z,2.60
2023-03-16T16:48:46.527Z,2.50
2023-03-16T16:51:24.708Z,3.03
2023-03-16T16:53:54.110Z,2.33
2023-03-16T16:56:26.377Z,2.30
2023-03-16T16:58:54.199Z,2.00
2023-03-16T17:01:30.176Z,2.55
2023-03-16T17:03:57.523Z,2.78
2023-03-16T17:06:24.611Z,3.05
2023-03-16T17:08:51.657Z,2.72
2023-03-16T17:11:28.208Z,2.50
2023-03-16T17:13:57.765Z,2.70
2023-03-16T17:16:25.273Z,2.60
2023-03-16T17:18:52.172Z,2.22
2023-03-16T17:21:21.923Z,2.47
2023-03-16T17:23:49.885Z,2.30
2023-03-16T17:26:23.831Z,2.63
2023-03-16T17:28:57.738Z,2.50
2023-03-16T17:31:28.026Z,2.45
2023-03-16T17:33:56.283Z,2.40
2023-03-16T17:36:23.110Z,2.07
2023-03-16T17:38:50.264Z,2.05
2023-03-16T17:41:30.128Z,2.30
2023-03-16T17:44:03.028Z,2.20
2023-03-16T17:46:31.827Z,2.00
2023-03-16T17:48:58.777Z,1.87
2023-03-16T17:51:25.727Z,2.13
2023-03-16T17:53:52.644Z,1.98
2023-03-16T17:56:27.085Z,1.80
2023-03-16T17:58:56.490Z,2.00
2023-03-16T18:01:34.168Z,1.90
2023-03-16T18:04:02.972Z,1.80
2023-03-16T18:06:31.053Z,1.55
2023-03-16T18:08:58.393Z,1.50
2023-03-16T18:11:37.526Z,1.60
2023-03-16T18:14:08.747Z,1.50
2023-03-16T18:16:36.753Z,1.40
2023-03-16T18:19:17.223Z,1.20
2023-03-16T18:21:44.716Z,1.20
2023-03-16T18:24:15.301Z,1.45
2023-03-16T18:26:43.727Z,1.33
2023-03-16T18:29:12.756Z,1.30
2023-03-16T18:31:43.384Z,2.10
2023-03-16T18:34:28.276Z,3.08
2023-03-16T18:36:56.528Z,2.47
2023-03-16T18:39:24.090Z,2.30
2023-03-16T18:41:52.299Z,2.30
2023-03-16T18:44:22.489Z,2.00
2023-03-16T18:46:53.327Z,1.23
2023-03-16T18:49:28.453Z,1.30
2023-03-16T18:51:56.432Z,2.10
2023-03-16T18:54:31.929Z,2.47
2023-03-16T18:56:59.666Z,2.90
2023-03-16T18:59:27.518Z,3.42
2023-03-16T19:01:57.912Z,5.25
2023-03-16T19:04:30.584Z,5.17
2023-03-16T19:06:57.818Z,4.28
2023-03-16T19:09:29.476Z,4.50
2023-03-16T19:11:59.581Z,3.33
2023-03-16T19:14:33.522Z,2.80
2023-03-16T19:17:00.843Z,3.00
2023-03-16T19:19:27.751Z,3.05
2023-03-16T19:22:07.412Z,2.42
2023-03-16T19:24:55.148Z,2.25
2023-03-16T19:27:35.426Z,2.35
2023-03-16T19:30:02.883Z,2.80
2023-03-16T19:32:29.825Z,3.38
2023-03-16T19:34:57.182Z,3.63
2023-03-16T19:37:24.199Z,4.05
2023-03-16T19:39:54.213Z,3.95
2023-03-16T19:42:28.713Z,3.40
2023-03-16T19:44:56.388Z,3.15
2023-03-16T19:47:30.965Z,2.90
2023-03-16T19:49:58.383Z,4.03
2023-03-16T19:52:26.460Z,8.02
2023-03-16T19:54:53.362Z,7.80
2023-03-16T19:57:20.909Z,6.50
2023-03-16T19:59:53.303Z,7.60
2023-03-16T20:02:43.930Z,8.05
2023-03-16T20:05:17.877Z,6.25
2023-03-16T20:07:44.734Z,6.07
2023-03-16T20:10:20.060Z,7.05
2023-03-16T20:12:49.673Z,6.72
2023-03-16T20:15:18.638Z,6.47
2023-03-16T20:17:46.420Z,6.80
2023-03-16T20:20:29.899Z,4.93
2023-03-16T20:22:57.210Z,5.35
2023-03-16T20:25:25.761Z,5.53
2023-03-16T20:27:57.456Z,5.90
2023-03-16T20:30:24.476Z,5.03
2023-03-16T20:32:56.221Z,4.90
2023-03-16T20:35:26.857Z,5.00
2023-03-16T20:37:55.259Z,5.10
2023-03-16T20:40:23.434Z,5.15
2023-03-16T20:42:51.775Z,4.78
2023-03-16T20:45:24.681Z,4.63
2023-03-16T20:47:54.787Z,4.82
2023-03-16T20:50:30.913Z,4.60
2023-03-16T20:52:58.898Z,4.00
2023-03-16T20:55:27.614Z,4.10
2023-03-16T20:57:55.412Z,3.80
2023-03-16T21:00:27.259Z,3.00
2023-03-16T21:02:55.023Z,3.10
2023-03-16T21:05:23.463Z,3.00
2023-03-16T21:07:52.072Z,2.83
2023-03-16T21:10:23.660Z,2.63
2023-03-16T21:12:56.217Z,2.35
2023-03-16T21:15:32.381Z,2.70
2023-03-16T21:18:00.897Z,2.45
2023-03-16T21:20:30.952Z,2.70
2023-03-16T21:22:59.376Z,2.20
2023-03-16T21:25:30.369Z,2.78
2023-03-16T21:28:03.610Z,3.33
2023-03-16T21:30:40.184Z,3.58
2023-03-16T21:33:30.705Z,3.35
2023-03-16T21:35:59.084Z,4.40
2023-03-16T21:38:28.408Z,3.70
2023-03-16T21:40:56.519Z,3.80
2023-03-16T21:43:23.977Z,2.95
2023-03-16T21:45:51.231Z,2.90
2023-03-16T21:48:23.890Z,2.70
2023-03-16T21:50:52.879Z,2.38
2023-03-16T21:53:26.381Z,2.13
2023-03-16T21:55:53.937Z,2.40
2023-03-16T21:58:21.396Z,3.20
2023-03-16T22:00:49.746Z,6.53
2023-03-16T22:03:47.989Z,6.65
2023-03-16T22:06:16.600Z,7.25
2023-03-16T22:08:43.610Z,6.10
2023-03-16T22:11:17.205Z,5.43
2023-03-16T22:13:44.079Z,3.27
2023-03-16T22:16:20.842Z,5.38
2023-03-16T22:18:50.385Z,7.78
2023-03-16T22:21:34.603Z,6.65
2023-03-16T22:24:02.838Z,6.07
2023-03-16T22:26:30.141Z,6.27
2023-03-16T22:28:59.292Z,5.90
2023-03-16T22:31:35.914Z,5.75
2023-03-16T22:34:04.318Z,7.43
2023-03-16T22:36:33.071Z,6.40
2023-03-16T22:39:07.410Z,5.77
2023-03-16T22:41:34.405Z,7.10
2023-03-16T22:44:01.674Z,5.55
2023-03-16T22:46:29.559Z,5.07
2023-03-16T22:48:57.609Z,4.90
2023-03-16T22:51:29.612Z,5.40
2023-03-16T22:54:06.364Z,5.18
2023-03-16T22:56:34.918Z,5.20
2023-03-16T22:59:05.899Z,5.40
2023-03-16T23:01:40.623Z,8.82
2023-03-16T23:04:18.835Z,6.53
2023-03-16T23:06:47.376Z,6.18
2023-03-16T23:09:16.656Z,5.88
2023-03-16T23:11:45.382Z,6.07
2023-03-16T23:14:34.924Z,6.20
2023-03-16T23:17:01.764Z,4.93
2023-03-16T23:19:32.590Z,4.75
2023-03-16T23:22:02.367Z,4.38
2023-03-16T23:24:29.466Z,5.28
2023-03-16T23:26:56.412Z,5.70
2023-03-16T23:29:24.446Z,6.37
2023-03-16T23:31:51.343Z,6.63
2023-03-16T23:34:20.689Z,6.43
2023-03-16T23:36:48.067Z,6.30
2023-03-16T23:39:15.102Z,6.55
2023-03-16T23:41:45.841Z,5.83
2023-03-16T23:44:19.559Z,5.80
2023-03-16T23:46:46.457Z,5.72
2023-03-16T23:49:23.548Z,5.78
2023-03-16T23:51:50.816Z,5.55
2023-03-16T23:54:24.531Z,5.50
2023-03-16T23:56:51.540Z,6.60
2023-03-16T23:59:18.828Z,5.93
